Time;durP1;ratioP1;P1;durP2;ratioP2;P2;SDS_P1;SDS_P2;PMS_P1;PMS_P2;Temp;Humidity;BMP_temperature;BMP_pressure;BME280_temperature;BME280_humidity;BME280_pressure;Samples;Min_cycle;Max_cycle;Signal;HPM_P1;HPM_P2
2022/11/18 00:00:13;;;;;;;20.17;17.23;;;7.80;99.90;;;;;;5034745;28;20041;-78
2022/11/18 00:02:39;;;;;;;21.40;17.27;;;7.80;99.90;;;;;;5036206;28;20052;-79
2022/11/18 00:05:05;;;;;;;22.38;17.30;;;7.80;99.90;;;;;;5034269;28;20040;-80
2022/11/18 00:07:31;;;;;;;21.75;17.30;;;7.80;99.90;;;;;;5003299;28;20033;-80
2022/11/18 00:09:56;;;;;;;22.65;16.80;;;8.40;99.90;;;;;;5039436;28;20040;-80
2022/11/18 00:15:07;;;;;;;21.75;17.35;;;7.70;99.90;;;;;;5057874;28;20132;-80
2022/11/18 00:17:32;;;;;;;23.05;18.55;;;7.70;99.90;;;;;;5029720;28;20032;-80
2022/11/18 00:19:58;;;;;;;22.63;18.15;;;7.70;99.90;;;;;;5043369;28;20033;-78
2022/11/18 00:22:24;;;;;;;23.95;17.85;;;7.70;99.90;;;;;;5049388;28;20044;-80
2022/11/18 00:24:49;;;;;;;20.70;16.52;;;7.90;99.90;;;;;;5039113;28;20063;-80
2022/11/18 00:27:15;;;;;;;24.45;18.13;;;7.70;99.90;;;;;;5040211;28;20055;-80
2022/11/18 00:29:41;;;;;;;24.95;19.40;;;7.70;99.90;;;;;;5028283;28;20036;-80
2022/11/18 00:32:07;;;;;;;29.50;20.05;;;7.70;99.90;;;;;;5038108;28;20131;-80
2022/11/18 00:34:33;;;;;;;24.05;19.38;;;7.70;99.90;;;;;;5038764;28;20316;-80
2022/11/18 00:36:58;;;;;;;23.95;17.38;;;7.60;99.90;;;;;;5052497;28;20041;-79
2022/11/18 00:39:24;;;;;;;26.50;21.05;;;7.60;99.90;;;;;;5042488;28;20048;-80
2022/11/18 00:44:35;;;;;;;28.63;23.13;;;7.70;99.90;;;;;;5044643;28;20393;-80
2022/11/18 00:47:00;;;;;;;27.67;22.23;;;7.60;99.90;;;;;;5024657;28;20036;-81
2022/11/18 00:49:26;;;;;;;29.23;21.45;;;7.60;99.90;;;;;;5038487;28;20028;-80
2022/11/18 00:51:52;;;;;;;31.92;23.92;;;7.60;99.90;;;;;;5027424;28;20131;-80
2022/11/18 00:54:18;;;;;;;26.80;21.65;;;8.00;99.90;;;;;;5041653;28;20040;-80
2022/11/18 00:56:44;;;;;;;27.35;20.80;;;8.60;99.90;;;;;;5045639;28;20041;-80
2022/11/18 00:59:09;;;;;;;29.70;22.58;;;7.60;99.90;;;;;;5029451;28;20075;-80
2022/11/18 01:01:35;;;;;;;30.13;23.13;;;7.70;99.90;;;;;;5041521;28;20033;-80
2022/11/18 01:04:01;;;;;;;38.13;24.80;;;7.70;99.90;;;;;;5048319;28;20036;-79
2022/11/18 01:06:27;;;;;;;32.75;24.90;;;7.70;99.90;;;;;;5045257;28;20076;-79
2022/11/18 01:08:53;;;;;;;40.97;25.10;;;7.60;99.90;;;;;;5031624;28;20787;-80
2022/11/18 01:14:10;;;;;;;31.00;23.58;;;7.70;99.90;;;;;;5029179;22;20524;-79
2022/11/18 01:16:36;;;;;;;32.78;23.80;;;8.30;99.90;;;;;;5003236;28;20045;-81
2022/11/18 01:19:01;;;;;;;37.25;26.40;;;7.70;99.90;;;;;;5042006;28;20045;-80
2022/11/18 01:21:28;;;;;;;38.10;25.23;;;7.70;99.90;;;;;;5031712;28;20123;-78
2022/11/18 01:23:54;;;;;;;38.08;26.05;;;8.60;99.90;;;;;;5052457;28;20048;-81
2022/11/18 01:26:19;;;;;;;38.60;25.77;;;7.70;99.90;;;;;;5023014;28;20033;-79
2022/11/18 01:28:45;;;;;;;37.63;24.77;;;7.80;99.90;;;;;;5037419;28;20049;-79
2022/11/18 01:31:14;;;;;;;38.25;25.63;;;8.70;99.90;;;;;;5009432;28;20123;-81
2022/11/18 01:33:39;;;;;;;36.75;24.17;;;7.80;99.90;;;;;;5054730;28;20048;-81
2022/11/18 01:36:15;;;;;;;39.53;25.83;;;7.80;99.90;;;;;;5052682;28;20111;-79
2022/11/18 01:38:41;;;;;;;39.83;24.73;;;7.80;99.90;;;;;;5046778;28;20045;-81
2022/11/18 01:41:06;;;;;;;36.25;24.63;;;7.80;99.90;;;;;;5037819;28;20113;-78
2022/11/18 01:43:55;;;;;;;41.03;26.13;;;7.80;99.90;;;;;;5030130;28;20051;-81
2022/11/18 01:46:23;;;;;;;38.55;25.73;;;7.80;99.90;;;;;;5031987;28;20045;-79
2022/11/18 01:49:12;;;;;;;35.25;24.35;;;7.80;99.90;;;;;;5030397;28;20048;-81
2022/11/18 01:51:56;;;;;;;38.08;25.58;;;7.80;99.90;;;;;;5032143;28;20386;-82
2022/11/18 01:54:34;;;;;;;36.58;25.92;;;7.80;99.90;;;;;;5047452;28;20649;-81
2022/11/18 01:57:06;;;;;;;40.42;24.88;;;7.90;99.90;;;;;;5050065;28;20067;-79
2022/11/18 01:59:36;;;;;;;36.83;23.80;;;7.80;99.90;;;;;;5064935;28;20137;-82
2022/11/18 02:02:06;;;;;;;41.60;25.98;;;8.70;99.90;;;;;;5060488;28;20067;-80
2022/11/18 02:04:33;;;;;;;45.50;27.30;;;7.80;99.90;;;;;;5042748;28;20051;-80
2022/11/18 02:06:59;;;;;;;45.47;26.25;;;7.90;99.90;;;;;;5034410;28;20044;-81
2022/11/18 02:09:24;;;;;;;39.03;23.70;;;7.90;99.90;;;;;;5016534;28;20040;-80
2022/11/18 02:11:50;;;;;;;40.67;26.55;;;7.90;99.90;;;;;;5022204;28;20427;-80
2022/11/18 02:14:20;;;;;;;43.78;26.85;;;8.40;99.90;;;;;;5018039;28;20042;-78
2022/11/18 02:17:11;;;;;;;45.70;26.95;;;7.90;99.90;;;;;;5034481;28;20440;-80
2022/11/18 02:19:45;;;;;;;44.53;26.42;;;7.90;99.90;;;;;;5050550;28;20496;-82
2022/11/18 02:22:54;;;;;;;49.70;26.88;;;7.90;99.90;;;;;;5053359;28;20048;-81
2022/11/18 02:25:44;;;;;;;48.63;27.52;;;7.90;99.90;;;;;;5032002;28;20265;-81
2022/11/18 02:28:29;;;;;;;50.85;27.05;;;7.90;99.90;;;;;;5032842;28;20441;-82
2022/11/18 02:31:41;;;;;;;44.92;26.23;;;7.90;99.90;;;;;;5047652;28;20039;-81
2022/11/18 02:34:44;;;;;;;48.38;27.48;;;7.90;99.90;;;;;;4936498;28;20070;-81
2022/11/18 02:37:32;;;;;;;47.05;26.80;;;7.90;99.90;;;;;;5027491;28;20401;-80
2022/11/18 02:40:07;;;;;;;49.33;27.48;;;7.90;99.90;;;;;;5047384;28;20064;-81
2022/11/18 02:42:38;;;;;;;43.33;25.83;;;7.90;99.90;;;;;;5034506;28;20400;-81
2022/11/18 02:45:15;;;;;;;47.53;28.05;;;7.90;99.90;;;;;;5048013;28;20098;-81
2022/11/18 02:47:45;;;;;;;43.72;28.15;;;7.80;99.90;;;;;;5033356;28;20105;-81
2022/11/18 02:50:15;;;;;;;43.40;26.30;;;7.90;99.90;;;;;;5028629;28;20048;-82
2022/11/18 02:52:44;;;;;;;48.28;28.02;;;7.90;99.90;;;;;;5033596;28;20044;-78
2022/11/18 02:55:12;;;;;;;49.40;28.65;;;7.90;99.90;;;;;;5050415;28;20033;-80
2022/11/18 02:57:40;;;;;;;47.08;27.08;;;7.80;99.90;;;;;;5032905;28;20457;-80
2022/11/18 03:00:06;;;;;;;49.95;29.73;;;7.80;99.90;;;;;;5046610;28;20043;-82
2022/11/18 03:02:47;;;;;;;47.58;27.67;;;7.80;99.90;;;;;;5015396;28;20040;-81
2022/11/18 03:05:45;;;;;;;51.35;27.77;;;7.80;99.90;;;;;;5043634;28;20041;-79
2022/11/18 03:08:21;;;;;;;48.40;28.35;;;7.80;99.90;;;;;;5012299;28;20055;-81
2022/11/18 03:11:14;;;;;;;47.75;28.63;;;7.80;99.90;;;;;;5034364;28;20159;-82
2022/11/18 03:14:02;;;;;;;54.30;29.45;;;7.80;99.90;;;;;;5017830;28;20059;-81
2022/11/18 03:16:59;;;;;;;47.90;27.60;;;7.80;99.90;;;;;;5036982;28;20404;-81
2022/11/18 03:19:52;;;;;;;47.85;28.17;;;7.80;99.90;;;;;;5032475;28;20183;-82
2022/11/18 03:22:28;;;;;;;50.50;30.23;;;7.80;99.90;;;;;;5049521;28;20037;-81
2022/11/18 03:25:05;;;;;;;51.33;28.90;;;7.80;99.90;;;;;;5052163;28;20036;-81
2022/11/18 03:28:01;;;;;;;51.33;29.70;;;7.80;99.90;;;;;;5044020;28;20056;-79
2022/11/18 03:30:31;;;;;;;47.55;28.38;;;7.80;99.90;;;;;;5025627;28;20052;-80
2022/11/18 03:33:14;;;;;;;48.92;28.15;;;7.70;99.90;;;;;;5049484;28;20044;-82
2022/11/18 03:35:44;;;;;;;52.17;29.80;;;7.70;99.90;;;;;;5033125;28;20040;-80
2022/11/18 03:38:17;;;;;;;51.15;28.77;;;7.80;99.90;;;;;;5050568;28;20108;-78
2022/11/18 03:40:49;;;;;;;55.22;29.92;;;7.70;99.90;;;;;;5046652;28;20045;-81
2022/11/18 03:43:18;;;;;;;48.63;29.45;;;7.70;99.90;;;;;;5046541;28;20068;-79
2022/11/18 03:46:22;;;;;;;49.97;28.83;;;7.70;99.90;;;;;;5048114;28;20442;-80
2022/11/18 03:48:53;;;;;;;52.97;28.23;;;7.70;99.90;;;;;;5028759;28;20524;-79
2022/11/18 03:51:26;;;;;;;42.80;26.52;;;7.90;99.90;;;;;;5047957;28;20496;-81
2022/11/18 03:54:00;;;;;;;47.05;28.02;;;8.00;99.90;;;;;;5051593;28;20040;-79
2022/11/18 03:56:30;;;;;;;48.63;27.92;;;7.70;99.90;;;;;;5048714;28;20068;-81
2022/11/18 03:59:03;;;;;;;48.63;27.92;;;7.70;99.90;;;;;;5049788;28;20509;-79
2022/11/18 04:01:36;;;;;;;;;;;7.70;99.90;;;;;;5040664;28;20040;-79
2022/11/18 04:04:02;;;;;;;47.80;27.00;;;7.70;99.90;;;;;;5058334;28;19962;-78
2022/11/18 04:06:55;;;;;;;51.92;28.90;;;7.70;99.90;;;;;;5038025;28;20044;-81
2022/11/18 04:09:32;;;;;;;52.55;28.38;;;7.70;99.90;;;;;;5043636;28;20040;-79
2022/11/18 04:12:05;;;;;;;47.95;27.23;;;7.70;99.90;;;;;;5041659;28;20501;-81
2022/11/18 04:14:40;;;;;;;49.37;27.93;;;7.70;99.90;;;;;;5029147;28;20035;-80
2022/11/18 04:17:15;;;;;;;48.28;27.63;;;7.70;99.90;;;;;;5044789;28;20517;-81
2022/11/18 04:19:41;;;;;;;48.90;28.00;;;7.60;99.90;;;;;;5047157;28;20048;-81
2022/11/18 04:22:08;;;;;;;48.28;27.83;;;7.60;99.90;;;;;;5049613;28;20036;-79
2022/11/18 04:24:34;;;;;;;51.83;29.50;;;7.60;99.90;;;;;;5031522;28;20071;-81
2022/11/18 04:27:01;;;;;;;52.17;29.48;;;7.60;99.90;;;;;;5036378;28;20055;-81
2022/11/18 04:29:27;;;;;;;50.97;28.27;;;7.90;99.90;;;;;;5038081;28;20037;-82
2022/11/18 04:31:53;;;;;;;51.70;28.73;;;7.60;99.90;;;;;;5036045;28;20049;-78
2022/11/18 04:34:19;;;;;;;51.35;28.55;;;8.10;99.90;;;;;;5031676;28;20064;-81
2022/11/18 04:36:45;;;;;;;53.42;30.90;;;7.60;99.90;;;;;;5034981;28;20041;-79
2022/11/18 04:39:10;;;;;;;47.70;27.58;;;7.60;99.90;;;;;;5033442;28;20653;-82
2022/11/18 04:41:54;;;;;;;51.03;29.45;;;7.50;99.90;;;;;;5054706;28;20036;-81
2022/11/18 04:44:21;;;;;;;51.22;28.42;;;7.50;99.90;;;;;;5020892;28;20048;-81
2022/11/18 04:46:46;;;;;;;51.85;29.63;;;7.50;99.90;;;;;;5048371;28;20075;-81
2022/11/18 04:49:13;;;;;;;49.63;28.85;;;7.50;99.90;;;;;;5051960;28;20571;-80
2022/11/18 04:51:40;;;;;;;57.58;30.77;;;7.50;99.90;;;;;;5049337;28;20044;-82
2022/11/18 04:54:06;;;;;;;48.65;28.40;;;7.50;99.90;;;;;;5018878;28;20499;-81
2022/11/18 04:56:32;;;;;;;50.70;27.73;;;7.50;99.90;;;;;;5051534;28;20055;-80
2022/11/18 04:58:59;;;;;;;51.40;28.73;;;7.50;99.90;;;;;;5018425;28;20037;-79
2022/11/18 05:01:26;;;;;;;52.42;27.98;;;7.70;99.90;;;;;;5037276;28;20171;-78
2022/11/18 05:03:52;;;;;;;45.85;27.25;;;7.50;99.90;;;;;;5014990;28;20455;-80
2022/11/18 05:06:18;;;;;;;44.65;27.40;;;8.10;99.90;;;;;;5028730;28;20041;-78
2022/11/18 05:08:44;;;;;;;45.90;27.27;;;7.50;99.90;;;;;;5036018;28;20482;-82
2022/11/18 05:13:55;;;;;;;48.67;28.02;;;7.40;99.90;;;;;;5032695;28;20047;-81
2022/11/18 05:16:21;;;;;;;48.03;27.70;;;7.50;99.90;;;;;;5030796;28;20561;-78
2022/11/18 05:18:47;;;;;;;47.28;26.98;;;7.50;99.90;;;;;;5050288;28;20048;-82
2022/11/18 05:21:12;;;;;;;50.17;29.52;;;7.50;99.90;;;;;;5034683;28;20076;-81
2022/11/18 05:23:38;;;;;;;43.92;26.45;;;7.50;99.90;;;;;;5031778;28;20041;-81
2022/11/18 05:26:09;;;;;;;43.63;26.25;;;7.80;99.90;;;;;;5031302;28;20044;-81
2022/11/18 05:28:35;;;;;;;46.15;25.58;;;8.00;99.90;;;;;;5050834;28;20048;-78
2022/11/18 05:31:09;;;;;;;46.83;27.60;;;7.40;99.90;;;;;;5014603;28;20492;-82
2022/11/18 05:33:35;;;;;;;48.65;27.83;;;7.40;99.90;;;;;;5052703;28;20515;-80
2022/11/18 05:36:05;;;;;;;41.88;24.50;;;7.40;99.90;;;;;;5051725;28;20043;-79
2022/11/18 05:38:32;;;;;;;42.72;25.38;;;7.40;99.90;;;;;;5019380;28;20040;-82
2022/11/18 05:40:58;;;;;;;45.22;25.80;;;7.40;99.90;;;;;;5032147;28;20601;-80
2022/11/18 05:43:24;;;;;;;42.08;24.90;;;7.40;99.90;;;;;;5033909;28;20060;-81
2022/11/18 05:45:51;;;;;;;46.10;26.23;;;7.40;99.90;;;;;;5045110;28;20076;-79
2022/11/18 05:48:17;;;;;;;42.65;25.08;;;7.40;99.90;;;;;;5030343;28;20501;-80
2022/11/18 05:50:49;;;;;;;41.70;25.67;;;7.40;99.90;;;;;;5046920;28;20067;-79
2022/11/18 05:53:17;;;;;;;46.15;25.75;;;7.40;99.90;;;;;;5029868;28;20091;-83
2022/11/18 05:55:48;;;;;;;42.25;25.23;;;7.40;99.90;;;;;;5044440;28;20052;-81
2022/11/18 05:58:14;;;;;;;40.63;24.63;;;7.40;99.90;;;;;;5048784;28;20509;-81
2022/11/18 06:00:40;;;;;;;37.35;24.40;;;7.40;99.90;;;;;;5047160;28;20052;-85
2022/11/18 06:03:12;;;;;;;40.72;24.85;;;7.40;99.90;;;;;;5034235;28;20028;-80
2022/11/18 06:05:38;;;;;;;44.22;24.73;;;7.60;99.90;;;;;;5039877;28;20572;-78
2022/11/18 06:08:04;;;;;;;39.65;24.83;;;7.40;99.90;;;;;;5051163;28;20041;-81
2022/11/18 06:10:34;;;;;;;41.67;23.35;;;7.40;99.90;;;;;;5033990;28;20037;-82
2022/11/18 06:13:04;;;;;;;43.47;24.15;;;7.40;99.90;;;;;;5034232;28;20039;-78
2022/11/18 06:15:40;;;;;;;39.70;25.23;;;7.40;99.90;;;;;;5034508;28;20025;-81
2022/11/18 06:18:10;;;;;;;39.83;24.50;;;7.40;99.90;;;;;;5027861;28;20089;-78
2022/11/18 06:20:40;;;;;;;43.97;25.10;;;7.40;99.90;;;;;;5045721;28;20044;-81
2022/11/18 06:23:05;;;;;;;42.88;24.50;;;7.40;99.90;;;;;;5023421;28;20102;-80
2022/11/18 06:25:32;;;;;;;47.55;25.20;;;7.40;99.90;;;;;;5003589;28;20469;-79
2022/11/18 06:28:03;;;;;;;40.35;24.08;;;7.40;99.90;;;;;;5051755;28;20048;-81
2022/11/18 06:30:28;;;;;;;41.90;25.52;;;7.40;99.90;;;;;;5052353;28;20170;-80
2022/11/18 06:32:54;;;;;;;39.92;24.45;;;7.40;99.90;;;;;;5023307;28;20519;-80
2022/11/18 06:35:20;;;;;;;41.08;24.10;;;7.40;99.90;;;;;;5031271;28;20033;-82
2022/11/18 06:37:46;;;;;;;40.38;24.27;;;7.40;99.90;;;;;;5038670;28;20155;-78
2022/11/18 06:40:12;;;;;;;40.60;23.73;;;7.40;99.90;;;;;;5033337;28;20048;-80
2022/11/18 06:45:22;;;;;;;41.95;23.35;;;7.40;99.90;;;;;;5030717;28;20056;-84
2022/11/18 06:47:48;;;;;;;42.08;24.48;;;7.50;99.90;;;;;;5034798;28;20044;-79
2022/11/18 06:50:13;;;;;;;46.58;25.42;;;7.40;99.90;;;;;;5016659;28;20037;-82
2022/11/18 06:52:39;;;;;;;43.45;25.65;;;7.30;99.90;;;;;;5029138;28;20041;-80
2022/11/18 06:55:07;;;;;;;41.55;24.88;;;8.00;99.90;;;;;;5058388;28;20044;-79
2022/11/18 06:57:33;;;;;;;46.90;26.83;;;7.30;99.90;;;;;;5065132;28;20075;-81
2022/11/18 06:59:59;;;;;;;40.95;24.27;;;7.30;99.90;;;;;;5009849;28;20048;-82
2022/11/18 07:02:25;;;;;;;44.08;25.02;;;8.30;99.90;;;;;;5063180;28;20406;-81
2022/11/18 07:04:50;;;;;;;37.70;22.63;;;7.30;99.90;;;;;;5042205;28;20444;-79
2022/11/18 07:07:16;;;;;;;41.90;25.15;;;7.70;99.90;;;;;;5026016;28;20119;-79
2022/11/18 07:09:42;;;;;;;43.90;24.00;;;7.30;99.90;;;;;;5030834;28;20105;-78
2022/11/18 07:12:08;;;;;;;43.50;25.23;;;7.40;99.90;;;;;;5014798;28;20032;-80
2022/11/18 07:14:34;;;;;;;42.83;24.42;;;7.20;99.90;;;;;;5012119;28;20044;-80
2022/11/18 07:17:00;;;;;;;45.15;24.27;;;7.20;99.90;;;;;;5028882;28;20063;-77
2022/11/18 07:21:53;;;;;;;47.13;26.65;;;7.20;99.90;;;;;;5053293;28;20044;-59
2022/11/18 07:24:19;;;;;;;41.53;24.45;;;7.20;99.90;;;;;;5038538;28;20135;-59
2022/11/18 07:26:45;;;;;;;44.80;25.13;;;7.20;99.90;;;;;;5062743;28;20040;-58
2022/11/18 07:29:11;;;;;;;49.55;27.38;;;7.20;99.90;;;;;;5058328;28;20437;-59
2022/11/18 07:31:38;;;;;;;51.22;27.30;;;7.10;99.90;;;;;;5016963;28;20059;-60
2022/11/18 07:34:04;;;;;;;49.95;27.00;;;7.10;99.90;;;;;;5002164;28;20110;-59
2022/11/18 07:36:30;;;;;;;44.22;26.80;;;7.10;99.90;;;;;;5059671;28;20502;-60
2022/11/18 07:38:58;;;;;;;48.33;27.20;;;7.10;99.90;;;;;;5041458;28;20040;-59
2022/11/18 07:41:26;;;;;;;47.13;26.27;;;7.60;99.90;;;;;;5058076;28;20036;-59
2022/11/18 07:43:54;;;;;;;48.55;26.77;;;7.10;99.90;;;;;;5054428;28;20028;-59
2022/11/18 07:46:26;;;;;;;48.72;26.50;;;7.10;99.90;;;;;;5057956;28;20045;-59
2022/11/18 07:48:54;;;;;;;50.30;28.35;;;7.10;99.90;;;;;;5058403;28;20041;-59
2022/11/18 07:51:25;;;;;;;48.15;24.63;;;7.10;99.90;;;;;;5036734;28;20043;-60
2022/11/18 07:53:52;;;;;;;47.95;25.27;;;7.00;99.90;;;;;;5044773;28;20041;-59
2022/11/18 07:56:18;;;;;;;55.20;27.52;;;7.00;99.90;;;;;;5059837;28;20437;-59
2022/11/18 07:58:44;;;;;;;45.80;25.58;;;7.00;99.90;;;;;;5051008;28;20518;-60
2022/11/18 08:01:15;;;;;;;50.78;25.27;;;7.00;99.90;;;;;;5030387;28;21596;-59
2022/11/18 08:03:42;;;;;;;43.72;24.48;;;7.00;99.90;;;;;;5061081;28;20040;-59
2022/11/18 08:06:10;;;;;;;42.97;24.45;;;7.00;99.90;;;;;;5048823;28;20049;-60
2022/11/18 08:08:36;;;;;;;44.25;24.55;;;7.00;99.90;;;;;;5022334;28;20404;-59
2022/11/18 08:11:05;;;;;;;50.45;24.83;;;7.00;99.90;;;;;;5053361;28;20110;-59
2022/11/18 08:13:31;;;;;;;49.90;25.23;;;6.90;99.90;;;;;;5052705;28;20047;-59
2022/11/18 08:15:58;;;;;;;55.42;25.73;;;7.00;99.90;;;;;;5046955;28;20556;-59
2022/11/18 08:18:24;;;;;;;49.95;25.77;;;7.10;99.90;;;;;;5054019;28;20036;-59
2022/11/18 08:20:49;;;;;;;47.40;23.48;;;7.10;99.90;;;;;;5066934;28;20418;-58
2022/11/18 08:23:16;;;;;;;51.40;25.65;;;7.00;99.90;;;;;;5061212;28;20111;-58
2022/11/18 08:25:43;;;;;;;46.78;23.10;;;7.10;99.90;;;;;;5037456;28;20072;-57
2022/11/18 08:28:10;;;;;;;49.72;23.98;;;7.00;99.90;;;;;;5063793;28;20041;-58
2022/11/18 08:30:36;;;;;;;45.42;23.42;;;7.00;99.90;;;;;;5044648;28;20083;-57
2022/11/18 08:33:02;;;;;;;43.95;23.15;;;7.00;99.90;;;;;;5056916;28;20029;-58
2022/11/18 08:35:29;;;;;;;52.25;24.55;;;7.00;99.90;;;;;;5060271;28;20111;-58
2022/11/18 08:37:55;;;;;;;55.33;26.42;;;7.00;99.90;;;;;;5050539;28;20070;-58
2022/11/18 08:40:20;;;;;;;47.33;24.27;;;7.00;99.90;;;;;;5060492;28;20522;-61
2022/11/18 08:42:46;;;;;;;45.35;24.92;;;7.00;99.90;;;;;;5048985;28;20068;-58
2022/11/18 08:45:12;;;;;;;49.85;24.40;;;7.00;99.90;;;;;;5061271;28;20408;-58
2022/11/18 08:47:38;;;;;;;59.53;30.50;;;7.00;99.90;;;;;;5047637;28;20051;-58
2022/11/18 08:50:07;;;;;;;48.08;24.02;;;6.90;99.90;;;;;;5059019;28;20041;-58
2022/11/18 08:52:32;;;;;;;49.58;25.55;;;6.90;99.90;;;;;;5041425;28;20859;-59
2022/11/18 08:54:58;;;;;;;47.83;23.83;;;7.00;99.90;;;;;;5026757;28;20045;-59
2022/11/18 08:57:24;;;;;;;40.67;22.10;;;6.90;99.90;;;;;;5049165;28;20046;-59
2022/11/18 08:59:50;;;;;;;43.13;22.77;;;6.90;99.90;;;;;;5050925;28;20072;-58
2022/11/18 09:02:19;;;;;;;41.22;23.00;;;6.90;99.90;;;;;;5060880;28;20036;-59
2022/11/18 09:04:46;;;;;;;38.40;21.48;;;6.90;99.90;;;;;;5056353;28;20090;-59
2022/11/18 09:07:12;;;;;;;38.50;19.92;;;6.90;99.90;;;;;;5055758;28;20044;-58
2022/11/18 09:09:38;;;;;;;38.45;19.73;;;6.90;99.90;;;;;;5050585;28;20110;-58
2022/11/18 09:12:04;;;;;;;38.45;19.73;;;6.90;99.90;;;;;;5050284;28;20040;-59
2022/11/18 09:14:32;;;;;;;36.95;18.75;;;6.90;99.90;;;;;;5052726;28;20119;-59
2022/11/18 09:16:58;;;;;;;35.03;19.38;;;6.90;99.90;;;;;;5039643;28;20549;-59
2022/11/18 09:19:24;;;;;;;34.67;18.38;;;6.90;99.90;;;;;;5058845;28;20037;-59
2022/11/18 09:21:49;;;;;;;33.45;19.65;;;6.90;99.90;;;;;;5064576;28;20597;-60
2022/11/18 09:24:16;;;;;;;38.60;20.35;;;6.90;99.90;;;;;;5051713;28;20384;-59
2022/11/18 09:26:41;;;;;;;39.53;20.40;;;7.00;99.90;;;;;;5054583;28;20044;-59
2022/11/18 09:29:10;;;;;;;38.38;19.05;;;7.00;99.90;;;;;;5044781;28;20047;-59
2022/11/18 09:31:36;;;;;;;36.03;18.05;;;6.90;99.90;;;;;;5050299;28;20270;-59
2022/11/18 09:34:02;;;;;;;38.38;19.30;;;7.00;99.90;;;;;;5066933;28;20114;-59
2022/11/18 09:36:28;;;;;;;34.80;17.35;;;7.60;99.90;;;;;;5046189;28;20048;-59
2022/11/18 09:38:54;;;;;;;27.13;15.10;;;7.00;99.90;;;;;;5056861;28;20842;-59
2022/11/18 09:42:07;;;;;;;23.02;14.85;;;6.90;99.90;;;;;;5039203;28;20127;-59
2022/11/18 09:44:58;;;;;;;24.95;14.32;;;6.90;99.90;;;;;;5003329;28;20341;-59
2022/11/18 09:47:30;;;;;;;25.95;14.60;;;6.90;99.90;;;;;;5057293;28;20392;-59
2022/11/18 09:50:03;;;;;;;29.48;17.15;;;6.90;99.90;;;;;;5054505;28;20033;-59
2022/11/18 09:53:01;;;;;;;30.50;16.85;;;6.90;99.90;;;;;;5041440;28;20063;-59
2022/11/18 09:55:28;;;;;;;34.22;18.20;;;6.90;99.90;;;;;;5058492;28;20387;-59
2022/11/18 09:57:57;;;;;;;41.20;21.02;;;6.90;99.90;;;;;;5065986;28;20462;-59
2022/11/18 10:00:26;;;;;;;36.83;19.77;;;7.00;99.90;;;;;;5053389;28;20044;-59
2022/11/18 10:03:06;;;;;;;29.65;19.00;;;6.90;99.90;;;;;;5031270;28;20506;-59
2022/11/18 10:05:46;;;;;;;31.73;17.20;;;6.90;99.90;;;;;;5062061;28;20475;-59
2022/11/18 10:08:43;;;;;;;31.88;16.98;;;6.90;99.90;;;;;;5043193;28;20098;-58
2022/11/18 10:11:22;;;;;;;32.30;19.42;;;6.90;99.90;;;;;;5056954;28;20041;-59
2022/11/18 10:13:57;;;;;;;28.17;16.17;;;7.00;99.90;;;;;;5061612;28;20573;-59
2022/11/18 10:16:42;;;;;;;24.35;15.60;;;7.00;99.90;;;;;;5051484;28;20140;-59
2022/11/18 10:19:41;;;;;;;25.08;15.80;;;7.00;99.90;;;;;;5026580;28;20682;-59
2022/11/18 10:22:20;;;;;;;23.38;15.32;;;7.00;99.90;;;;;;5052395;28;20048;-57
2022/11/18 10:24:50;;;;;;;21.27;13.00;;;7.00;99.90;;;;;;5050135;28;20037;-58
2022/11/18 10:27:17;;;;;;;23.58;14.95;;;6.90;99.90;;;;;;5056880;28;20392;-58
2022/11/18 10:29:44;;;;;;;23.20;14.05;;;7.00;99.90;;;;;;5030552;28;20043;-59
2022/11/18 10:32:13;;;;;;;23.20;13.77;;;7.00;99.90;;;;;;5067714;28;20115;-59
2022/11/18 10:34:54;;;;;;;23.17;13.00;;;6.90;99.90;;;;;;5055606;28;20037;-58
2022/11/18 10:37:33;;;;;;;21.77;12.00;;;7.00;99.90;;;;;;5062196;28;20442;-57
2022/11/18 10:40:04;;;;;;;23.55;14.23;;;7.00;99.90;;;;;;5055145;28;20048;-60
2022/11/18 10:42:45;;;;;;;23.38;11.98;;;7.00;99.90;;;;;;5038531;28;20094;-60
2022/11/18 10:45:21;;;;;;;21.73;12.70;;;6.90;99.90;;;;;;5105785;27;20111;-57
2022/11/18 10:48:24;;;;;;;20.17;12.40;;;6.90;99.90;;;;;;5119179;27;20541;-58
2022/11/18 10:50:50;;;;;;;23.33;13.43;;;7.00;99.90;;;;;;5094326;27;20081;-58
2022/11/18 10:53:36;;;;;;;24.38;12.52;;;6.90;99.90;;;;;;5108462;28;20081;-57
2022/11/18 10:56:03;;;;;;;23.55;12.85;;;6.80;99.90;;;;;;5113346;27;20119;-58
2022/11/18 10:58:31;;;;;;;20.00;12.30;;;6.80;99.90;;;;;;5109379;28;20065;-58
2022/11/18 11:01:19;;;;;;;18.17;12.05;;;6.80;99.90;;;;;;5107963;27;20121;-58
2022/11/18 11:04:11;;;;;;;19.42;12.32;;;6.80;99.90;;;;;;5108097;27;20046;-58
2022/11/18 11:06:37;;;;;;;21.15;12.60;;;6.80;99.90;;;;;;5115429;28;20035;-58
2022/11/18 11:09:26;;;;;;;16.35;10.60;;;7.40;99.90;;;;;;5116439;27;20027;-58
2022/11/18 11:12:14;;;;;;;19.20;11.18;;;6.80;99.90;;;;;;5114471;27;20163;-59
2022/11/18 11:14:43;;;;;;;24.60;12.90;;;6.80;99.90;;;;;;5109952;28;20499;-59
2022/11/18 11:17:18;;;;;;;22.35;13.57;;;6.80;99.90;;;;;;5107616;28;20043;-59
2022/11/18 11:20:09;;;;;;;21.48;12.60;;;6.80;99.90;;;;;;5113878;28;20050;-58
2022/11/18 11:22:35;;;;;;;24.38;12.82;;;6.80;99.90;;;;;;5107746;28;20043;-59
2022/11/18 11:25:01;;;;;;;22.48;14.82;;;6.70;99.90;;;;;;5116380;27;20035;-59
2022/11/18 11:27:38;;;;;;;23.17;13.05;;;6.70;99.90;;;;;;5106757;28;20080;-59
2022/11/18 11:30:07;;;;;;;23.73;12.93;;;6.70;99.90;;;;;;5113894;27;20112;-61
2022/11/18 11:33:01;;;;;;;21.45;12.23;;;6.60;99.90;;;;;;5112381;28;20517;-59
2022/11/18 11:35:51;;;;;;;21.73;12.48;;;6.60;99.90;;;;;;5103778;28;20043;-58
2022/11/18 11:38:26;;;;;;;19.98;13.07;;;6.70;99.90;;;;;;5111350;27;20749;-59
2022/11/18 11:41:20;;;;;;;22.25;13.60;;;6.70;99.90;;;;;;5104296;28;20038;-60
2022/11/18 11:43:57;;;;;;;20.58;12.55;;;6.80;99.90;;;;;;5106771;27;20028;-60
2022/11/18 11:46:27;;;;;;;20.27;12.48;;;6.80;99.90;;;;;;5112048;28;20031;-59
2022/11/18 11:49:14;;;;;;;21.35;11.90;;;6.80;99.90;;;;;;5112329;27;20036;-59
2022/11/18 11:52:07;;;;;;;18.42;11.63;;;6.80;99.90;;;;;;5113623;28;20500;-59
2022/11/18 11:54:45;;;;;;;17.83;10.40;;;6.80;99.90;;;;;;5103114;28;20079;-59
2022/11/18 11:57:48;;;;;;;19.58;11.82;;;6.70;99.90;;;;;;5093645;28;20054;-59
2022/11/18 12:00:17;;;;;;;19.80;10.70;;;6.60;99.90;;;;;;5091650;28;20097;-62
2022/11/18 12:03:13;;;;;;;17.40;10.23;;;6.50;99.90;;;;;;5102397;28;20043;-59
2022/11/18 12:05:41;;;;;;;15.50;9.48;;;6.60;99.90;;;;;;5100014;28;20039;-59
2022/11/18 12:08:33;;;;;;;21.05;11.18;;;6.60;99.90;;;;;;5099285;28;20050;-58
2022/11/18 12:11:06;;;;;;;19.25;10.38;;;6.60;99.90;;;;;;5097685;28;20043;-59
2022/11/18 12:14:03;;;;;;;17.85;10.55;;;6.60;99.90;;;;;;5102201;28;20031;-59
2022/11/18 12:16:52;;;;;;;17.48;10.63;;;6.50;99.90;;;;;;5092428;28;20979;-59
2022/11/18 12:19:20;;;;;;;19.90;9.88;;;6.60;99.90;;;;;;5093372;28;20119;-59
2022/11/18 12:21:46;;;;;;;17.42;10.00;;;6.60;99.90;;;;;;5096278;28;20040;-59
2022/11/18 12:24:35;;;;;;;19.80;11.75;;;6.60;99.90;;;;;;5095257;28;20048;-59
2022/11/18 12:27:22;;;;;;;19.23;11.45;;;6.60;99.90;;;;;;5094713;28;20044;-59
2022/11/18 12:29:48;;;;;;;23.15;12.40;;;6.60;99.90;;;;;;5092873;28;20127;-59
2022/11/18 12:32:25;;;;;;;19.90;11.88;;;6.60;99.90;;;;;;5091118;28;20122;-58
2022/11/18 12:35:25;;;;;;;21.80;13.13;;;6.50;99.90;;;;;;5095348;28;20118;-58
2022/11/18 12:37:51;;;;;;;23.02;13.38;;;6.50;99.90;;;;;;5057705;28;20059;-58
2022/11/18 12:40:33;;;;;;;23.83;12.90;;;6.50;99.90;;;;;;5093343;28;20055;-59
2022/11/18 12:45:44;;;;;;;23.17;13.35;;;6.50;99.90;;;;;;5093799;28;20043;-60
2022/11/18 12:48:22;;;;;;;20.02;12.38;;;6.50;99.90;;;;;;5092453;28;20051;-57
2022/11/18 12:50:53;;;;;;;21.95;13.30;;;6.40;99.90;;;;;;5094310;28;20040;-57
2022/11/18 12:53:40;;;;;;;24.42;13.48;;;6.40;99.90;;;;;;5071477;28;20043;-58
2022/11/18 12:56:23;;;;;;;21.63;14.20;;;6.40;99.90;;;;;;5093161;28;20469;-60
2022/11/18 12:58:58;;;;;;;23.05;14.15;;;6.30;99.90;;;;;;5095360;28;20433;-60
2022/11/18 13:01:35;;;;;;;26.30;13.32;;;6.20;99.90;;;;;;5076991;28;20039;-60
2022/11/18 13:04:19;;;;;;;20.17;11.60;;;6.10;99.90;;;;;;5092317;28;20506;-60
2022/11/18 13:06:46;;;;;;;24.38;13.63;;;6.10;99.90;;;;;;5079868;28;20031;-60
2022/11/18 13:09:21;;;;;;;24.17;14.00;;;6.00;99.90;;;;;;5093089;28;20093;-58
2022/11/18 13:11:53;;;;;;;21.92;13.27;;;6.00;99.90;;;;;;5094317;28;20575;-58
2022/11/18 13:17:53;;;;;;;23.85;13.02;;;5.90;99.90;;;;;;5094018;28;20067;-59
2022/11/18 13:20:35;;;;;;;22.75;13.13;;;6.00;99.90;;;;;;5090702;28;20115;-59
2022/11/18 13:26:13;;;;;;;24.85;15.00;;;5.90;99.90;;;;;;5085070;28;20079;-60
2022/11/18 13:29:14;;;;;;;30.85;16.42;;;5.90;99.90;;;;;;5091726;28;20478;-60